sensor_id;sensor_type;location;lat;lon;timestamp;P1;durP1;ratioP1;P2;durP2;ratioP2
38717;SDS011;24468;52.128;9.278;2023-02-01T00:00:23;21.75;;;4.40;;
38717;SDS011;24468;52.128;9.278;2023-02-01T00:02:48;19.80;;;4.70;;
38717;SDS011;24468;52.128;9.278;2023-02-01T00:05:14;19.02;;;3.30;;
38717;SDS011;24468;52.128;9.278;2023-02-01T00:07:40;18.92;;;3.20;;
38717;SDS011;24468;52.128;9.278;2023-02-01T00:10:05;18.13;;;4.80;;
38717;SDS011;24468;52.128;9.278;2023-02-01T00:12:32;17.15;;;3.97;;
38717;SDS011;24468;52.128;9.278;2023-02-01T00:14:58;21.50;;;4.07;;
38717;SDS011;24468;52.128;9.278;2023-02-01T00:17:24;15.15;;;4.15;;
38717;SDS011;24468;52.128;9.278;2023-02-01T00:19:49;11.50;;;2.90;;
38717;SDS011;24468;52.128;9.278;2023-02-01T00:22:15;16.23;;;4.28;;
38717;SDS011;24468;52.128;9.278;2023-02-01T00:24:40;20.90;;;3.72;;
38717;SDS011;24468;52.128;9.278;2023-02-01T00:27:06;14.60;;;3.40;;
38717;SDS011;24468;52.128;9.278;2023-02-01T00:29:31;20.48;;;4.50;;
38717;SDS011;24468;52.128;9.278;2023-02-01T00:31:57;17.67;;;3.83;;
38717;SDS011;24468;52.128;9.278;2023-02-01T00:34:22;19.90;;;3.75;;
38717;SDS011;24468;52.128;9.278;2023-02-01T00:36:48;13.85;;;4.07;;
38717;SDS011;24468;52.128;9.278;2023-02-01T00:39:14;16.10;;;3.78;;
38717;SDS011;24468;52.128;9.278;2023-02-01T00:41:41;17.45;;;4.47;;
38717;SDS011;24468;52.128;9.278;2023-02-01T00:44:06;15.55;;;4.22;;
38717;SDS011;24468;52.128;9.278;2023-02-01T00:46:32;16.85;;;5.05;;
38717;SDS011;24468;52.128;9.278;2023-02-01T00:48:58;19.38;;;3.97;;
38717;SDS011;24468;52.128;9.278;2023-02-01T00:51:25;18.55;;;4.72;;
38717;SDS011;24468;52.128;9.278;2023-02-01T00:53:53;15.73;;;3.10;;
38717;SDS011;24468;52.128;9.278;2023-02-01T00:56:19;14.45;;;3.33;;
38717;SDS011;24468;52.128;9.278;2023-02-01T00:58:45;18.08;;;4.28;;
38717;SDS011;24468;52.128;9.278;2023-02-01T01:03:44;14.43;;;4.20;;
38717;SDS011;24468;52.128;9.278;2023-02-01T01:06:13;14.52;;;2.58;;
38717;SDS011;24468;52.128;9.278;2023-02-01T01:08:42;24.98;;;4.03;;
38717;SDS011;24468;52.128;9.278;2023-02-01T01:11:09;17.77;;;3.00;;
38717;SDS011;24468;52.128;9.278;2023-02-01T01:13:42;16.15;;;3.90;;
38717;SDS011;24468;52.128;9.278;2023-02-01T01:16:08;12.68;;;3.83;;
38717;SDS011;24468;52.128;9.278;2023-02-01T01:18:35;18.55;;;4.38;;
38717;SDS011;24468;52.128;9.278;2023-02-01T01:21:03;16.02;;;3.88;;
38717;SDS011;24468;52.128;9.278;2023-02-01T01:23:30;19.10;;;4.45;;
38717;SDS011;24468;52.128;9.278;2023-02-01T01:25:56;15.82;;;3.95;;
38717;SDS011;24468;52.128;9.278;2023-02-01T01:28:22;15.48;;;4.00;;
38717;SDS011;24468;52.128;9.278;2023-02-01T01:30:48;12.60;;;3.47;;
38717;SDS011;24468;52.128;9.278;2023-02-01T01:33:13;13.25;;;3.53;;
38717;SDS011;24468;52.128;9.278;2023-02-01T01:35:39;19.85;;;4.85;;
38717;SDS011;24468;52.128;9.278;2023-02-01T01:38:05;19.52;;;3.63;;
38717;SDS011;24468;52.128;9.278;2023-02-01T01:40:30;18.95;;;5.15;;
38717;SDS011;24468;52.128;9.278;2023-02-01T01:42:56;13.45;;;4.20;;
38717;SDS011;24468;52.128;9.278;2023-02-01T01:45:24;14.05;;;3.42;;
38717;SDS011;24468;52.128;9.278;2023-02-01T01:48:39;15.27;;;4.32;;
38717;SDS011;24468;52.128;9.278;2023-02-01T01:50:53;17.90;;;3.47;;
38717;SDS011;24468;52.128;9.278;2023-02-01T01:53:27;15.20;;;3.67;;
38717;SDS011;24468;52.128;9.278;2023-02-01T01:55:58;16.65;;;3.83;;
38717;SDS011;24468;52.128;9.278;2023-02-01T01:58:26;14.77;;;4.78;;
38717;SDS011;24468;52.128;9.278;2023-02-01T02:00:56;15.00;;;3.45;;
38717;SDS011;24468;52.128;9.278;2023-02-01T02:03:27;13.63;;;3.75;;
38717;SDS011;24468;52.128;9.278;2023-02-01T02:06:00;21.42;;;4.95;;
38717;SDS011;24468;52.128;9.278;2023-02-01T02:08:29;21.27;;;6.32;;
38717;SDS011;24468;52.128;9.278;2023-02-01T02:10:54;17.15;;;4.70;;
38717;SDS011;24468;52.128;9.278;2023-02-01T02:18:54;17.60;;;3.63;;
38717;SDS011;24468;52.128;9.278;2023-02-01T02:36:11;16.13;;;4.45;;
38717;SDS011;24468;52.128;9.278;2023-02-01T02:38:43;23.55;;;3.70;;
38717;SDS011;24468;52.128;9.278;2023-02-01T02:50:44;18.33;;;4.03;;
38717;SDS011;24468;52.128;9.278;2023-02-01T02:53:46;14.43;;;4.32;;
38717;SDS011;24468;52.128;9.278;2023-02-01T02:56:53;22.63;;;4.10;;
38717;SDS011;24468;52.128;9.278;2023-02-01T02:59:40;18.55;;;3.83;;
38717;SDS011;24468;52.128;9.278;2023-02-01T03:02:26;17.75;;;3.80;;
38717;SDS011;24468;52.128;9.278;2023-02-01T03:05:12;12.98;;;4.15;;
38717;SDS011;24468;52.128;9.278;2023-02-01T03:10:24;13.20;;;3.47;;
38717;SDS011;24468;52.128;9.278;2023-02-01T03:13:26;14.70;;;4.05;;
38717;SDS011;24468;52.128;9.278;2023-02-01T03:18:56;13.20;;;3.67;;
38717;SDS011;24468;52.128;9.278;2023-02-01T03:24:23;18.05;;;3.75;;
38717;SDS011;24468;52.128;9.278;2023-02-01T03:30:24;18.90;;;4.43;;
38717;SDS011;24468;52.128;9.278;2023-02-01T03:32:56;10.15;;;3.97;;
38717;SDS011;24468;52.128;9.278;2023-02-01T03:36:14;18.00;;;4.63;;
38717;SDS011;24468;52.128;9.278;2023-02-01T03:38:38;15.65;;;3.80;;
38717;SDS011;24468;52.128;9.278;2023-02-01T03:41:33;17.33;;;4.10;;
38717;SDS011;24468;52.128;9.278;2023-02-01T03:44:18;12.13;;;4.07;;
38717;SDS011;24468;52.128;9.278;2023-02-01T03:47:07;14.05;;;3.95;;
38717;SDS011;24468;52.128;9.278;2023-02-01T03:49:41;12.85;;;3.38;;
38717;SDS011;24468;52.128;9.278;2023-02-01T03:55:08;14.63;;;3.78;;
38717;SDS011;24468;52.128;9.278;2023-02-01T03:57:37;16.67;;;4.25;;
38717;SDS011;24468;52.128;9.278;2023-02-01T04:00:19;22.20;;;5.20;;
38717;SDS011;24468;52.128;9.278;2023-02-01T04:02:48;17.83;;;5.00;;
38717;SDS011;24468;52.128;9.278;2023-02-01T04:05:15;17.45;;;3.95;;
38717;SDS011;24468;52.128;9.278;2023-02-01T04:07:41;14.88;;;4.28;;
38717;SDS011;24468;52.128;9.278;2023-02-01T04:10:08;20.83;;;4.15;;
38717;SDS011;24468;52.128;9.278;2023-02-01T04:12:34;16.67;;;3.60;;
38717;SDS011;24468;52.128;9.278;2023-02-01T04:15:00;13.23;;;3.47;;
38717;SDS011;24468;52.128;9.278;2023-02-01T04:17:25;19.83;;;4.90;;
38717;SDS011;24468;52.128;9.278;2023-02-01T04:19:51;18.75;;;4.80;;
38717;SDS011;24468;52.128;9.278;2023-02-01T04:22:16;15.82;;;4.03;;
38717;SDS011;24468;52.128;9.278;2023-02-01T04:24:42;14.60;;;3.97;;
38717;SDS011;24468;52.128;9.278;2023-02-01T04:27:07;15.25;;;3.30;;
38717;SDS011;24468;52.128;9.278;2023-02-01T04:29:33;16.67;;;4.90;;
38717;SDS011;24468;52.128;9.278;2023-02-01T04:31:59;15.07;;;4.03;;
38717;SDS011;24468;52.128;9.278;2023-02-01T04:34:24;17.92;;;3.80;;
38717;SDS011;24468;52.128;9.278;2023-02-01T04:36:50;13.05;;;3.67;;
38717;SDS011;24468;52.128;9.278;2023-02-01T04:39:16;18.58;;;5.47;;
38717;SDS011;24468;52.128;9.278;2023-02-01T04:41:42;20.42;;;4.25;;
38717;SDS011;24468;52.128;9.278;2023-02-01T04:44:10;12.35;;;3.53;;
38717;SDS011;24468;52.128;9.278;2023-02-01T04:46:41;15.98;;;4.20;;
38717;SDS011;24468;52.128;9.278;2023-02-01T04:49:08;16.15;;;4.07;;
38717;SDS011;24468;52.128;9.278;2023-02-01T04:51:35;11.77;;;2.85;;
38717;SDS011;24468;52.128;9.278;2023-02-01T04:54:00;18.42;;;4.63;;
38717;SDS011;24468;52.128;9.278;2023-02-01T04:56:26;20.70;;;3.88;;
38717;SDS011;24468;52.128;9.278;2023-02-01T04:58:52;15.40;;;2.95;;
38717;SDS011;24468;52.128;9.278;2023-02-01T05:01:18;9.45;;;3.35;;
38717;SDS011;24468;52.128;9.278;2023-02-01T05:03:43;15.93;;;3.38;;
38717;SDS011;24468;52.128;9.278;2023-02-01T05:06:09;18.08;;;4.97;;
38717;SDS011;24468;52.128;9.278;2023-02-01T05:08:35;18.23;;;3.20;;
38717;SDS011;24468;52.128;9.278;2023-02-01T05:11:00;14.00;;;3.05;;
38717;SDS011;24468;52.128;9.278;2023-02-01T05:13:29;12.43;;;3.17;;
38717;SDS011;24468;52.128;9.278;2023-02-01T05:16:13;17.13;;;3.95;;
38717;SDS011;24468;52.128;9.278;2023-02-01T05:18:40;13.50;;;3.47;;
38717;SDS011;24468;52.128;9.278;2023-02-01T05:21:05;17.67;;;5.63;;
38717;SDS011;24468;52.128;9.278;2023-02-01T05:23:31;16.30;;;4.57;;
38717;SDS011;24468;52.128;9.278;2023-02-01T05:26:00;19.80;;;3.97;;
38717;SDS011;24468;52.128;9.278;2023-02-01T05:28:26;14.90;;;3.88;;
38717;SDS011;24468;52.128;9.278;2023-02-01T05:30:53;11.27;;;3.90;;
38717;SDS011;24468;52.128;9.278;2023-02-01T05:33:19;11.55;;;3.17;;
38717;SDS011;24468;52.128;9.278;2023-02-01T05:35:45;18.80;;;3.47;;
38717;SDS011;24468;52.128;9.278;2023-02-01T05:38:10;11.38;;;3.10;;
38717;SDS011;24468;52.128;9.278;2023-02-01T05:40:36;15.60;;;5.05;;
38717;SDS011;24468;52.128;9.278;2023-02-01T05:43:02;13.45;;;2.80;;
38717;SDS011;24468;52.128;9.278;2023-02-01T05:45:27;11.32;;;3.50;;
38717;SDS011;24468;52.128;9.278;2023-02-01T05:47:53;13.23;;;3.53;;
38717;SDS011;24468;52.128;9.278;2023-02-01T05:50:18;10.75;;;2.60;;
38717;SDS011;24468;52.128;9.278;2023-02-01T05:52:44;11.32;;;3.38;;
38717;SDS011;24468;52.128;9.278;2023-02-01T05:55:09;12.50;;;2.97;;
38717;SDS011;24468;52.128;9.278;2023-02-01T05:57:35;13.80;;;2.97;;
38717;SDS011;24468;52.128;9.278;2023-02-01T06:00:01;7.72;;;2.50;;
38717;SDS011;24468;52.128;9.278;2023-02-01T06:02:27;12.90;;;2.72;;
38717;SDS011;24468;52.128;9.278;2023-02-01T06:04:53;14.00;;;4.03;;
38717;SDS011;24468;52.128;9.278;2023-02-01T06:07:18;11.77;;;2.97;;
38717;SDS011;24468;52.128;9.278;2023-02-01T06:09:44;19.75;;;3.78;;
38717;SDS011;24468;52.128;9.278;2023-02-01T06:12:09;14.23;;;4.68;;
38717;SDS011;24468;52.128;9.278;2023-02-01T06:14:35;11.07;;;3.38;;
38717;SDS011;24468;52.128;9.278;2023-02-01T06:17:02;9.07;;;3.70;;
38717;SDS011;24468;52.128;9.278;2023-02-01T06:19:27;10.63;;;2.80;;
38717;SDS011;24468;52.128;9.278;2023-02-01T06:21:53;10.60;;;3.03;;
38717;SDS011;24468;52.128;9.278;2023-02-01T06:24:19;7.82;;;2.72;;
38717;SDS011;24468;52.128;9.278;2023-02-01T06:26:44;8.25;;;3.13;;
38717;SDS011;24468;52.128;9.278;2023-02-01T06:29:10;9.95;;;2.63;;
38717;SDS011;24468;52.128;9.278;2023-02-01T06:31:36;17.40;;;3.40;;
38717;SDS011;24468;52.128;9.278;2023-02-01T06:34:01;10.57;;;2.88;;
38717;SDS011;24468;52.128;9.278;2023-02-01T06:36:27;17.85;;;6.25;;
38717;SDS011;24468;52.128;9.278;2023-02-01T06:38:53;10.35;;;3.35;;
38717;SDS011;24468;52.128;9.278;2023-02-01T06:41:21;11.27;;;3.20;;
38717;SDS011;24468;52.128;9.278;2023-02-01T06:43:47;11.27;;;3.15;;
38717;SDS011;24468;52.128;9.278;2023-02-01T06:46:13;14.82;;;3.90;;
38717;SDS011;24468;52.128;9.278;2023-02-01T06:48:39;14.30;;;3.50;;
38717;SDS011;24468;52.128;9.278;2023-02-01T06:51:05;20.70;;;4.88;;
38717;SDS011;24468;52.128;9.278;2023-02-01T06:53:31;18.02;;;4.07;;
38717;SDS011;24468;52.128;9.278;2023-02-01T06:55:58;14.05;;;3.60;;
38717;SDS011;24468;52.128;9.278;2023-02-01T06:58:30;16.90;;;3.78;;
38717;SDS011;24468;52.128;9.278;2023-02-01T07:00:57;11.02;;;3.30;;
38717;SDS011;24468;52.128;9.278;2023-02-01T07:03:29;18.23;;;3.60;;
38717;SDS011;24468;52.128;9.278;2023-02-01T07:05:55;8.35;;;2.92;;
38717;SDS011;24468;52.128;9.278;2023-02-01T07:08:23;11.20;;;2.88;;
38717;SDS011;24468;52.128;9.278;2023-02-01T07:10:51;11.13;;;3.17;;
38717;SDS011;24468;52.128;9.278;2023-02-01T07:13:17;12.32;;;3.42;;
38717;SDS011;24468;52.128;9.278;2023-02-01T07:15:43;7.97;;;2.55;;
38717;SDS011;24468;52.128;9.278;2023-02-01T07:18:08;15.95;;;3.80;;
38717;SDS011;24468;52.128;9.278;2023-02-01T07:20:34;14.52;;;3.50;;
38717;SDS011;24468;52.128;9.278;2023-02-01T07:22:59;12.55;;;4.45;;
38717;SDS011;24468;52.128;9.278;2023-02-01T07:25:25;19.65;;;3.35;;
38717;SDS011;24468;52.128;9.278;2023-02-01T07:27:50;15.18;;;3.25;;
38717;SDS011;24468;52.128;9.278;2023-02-01T07:30:16;13.32;;;3.33;;
38717;SDS011;24468;52.128;9.278;2023-02-01T07:32:42;12.00;;;2.40;;
38717;SDS011;24468;52.128;9.278;2023-02-01T07:35:08;15.15;;;3.67;;
38717;SDS011;24468;52.128;9.278;2023-02-01T07:37:33;21.40;;;4.18;;
38717;SDS011;24468;52.128;9.278;2023-02-01T07:39:59;15.15;;;2.85;;
38717;SDS011;24468;52.128;9.278;2023-02-01T07:42:24;11.68;;;3.20;;
38717;SDS011;24468;52.128;9.278;2023-02-01T07:44:50;11.70;;;2.95;;
38717;SDS011;24468;52.128;9.278;2023-02-01T07:47:15;15.10;;;2.97;;
38717;SDS011;24468;52.128;9.278;2023-02-01T07:49:41;17.50;;;3.80;;
38717;SDS011;24468;52.128;9.278;2023-02-01T07:52:06;9.88;;;2.85;;
38717;SDS011;24468;52.128;9.278;2023-02-01T07:54:32;13.90;;;3.22;;
38717;SDS011;24468;52.128;9.278;2023-02-01T07:56:57;13.25;;;3.15;;
38717;SDS011;24468;52.128;9.278;2023-02-01T07:59:23;13.82;;;4.00;;
38717;SDS011;24468;52.128;9.278;2023-02-01T08:01:48;13.10;;;3.00;;
38717;SDS011;24468;52.128;9.278;2023-02-01T08:04:14;14.43;;;2.97;;
38717;SDS011;24468;52.128;9.278;2023-02-01T08:06:39;13.07;;;2.70;;
38717;SDS011;24468;52.128;9.278;2023-02-01T08:09:06;11.38;;;3.08;;
38717;SDS011;24468;52.128;9.278;2023-02-01T08:11:36;17.65;;;3.53;;
38717;SDS011;24468;52.128;9.278;2023-02-01T08:14:02;12.57;;;3.47;;
38717;SDS011;24468;52.128;9.278;2023-02-01T08:16:29;13.02;;;3.25;;
38717;SDS011;24468;52.128;9.278;2023-02-01T08:18:54;15.02;;;3.28;;
38717;SDS011;24468;52.128;9.278;2023-02-01T08:21:21;14.70;;;4.43;;
38717;SDS011;24468;52.128;9.278;2023-02-01T08:23:50;14.48;;;3.83;;
38717;SDS011;24468;52.128;9.278;2023-02-01T08:26:20;20.58;;;4.25;;
38717;SDS011;24468;52.128;9.278;2023-02-01T08:28:50;11.88;;;2.38;;
38717;SDS011;24468;52.128;9.278;2023-02-01T08:31:19;17.13;;;4.78;;
38717;SDS011;24468;52.128;9.278;2023-02-01T08:33:48;16.88;;;3.85;;
38717;SDS011;24468;52.128;9.278;2023-02-01T08:36:20;10.68;;;3.88;;
38717;SDS011;24468;52.128;9.278;2023-02-01T08:38:46;15.18;;;4.28;;
38717;SDS011;24468;52.128;9.278;2023-02-01T08:41:13;12.65;;;3.17;;
38717;SDS011;24468;52.128;9.278;2023-02-01T08:43:42;18.48;;;4.15;;
38717;SDS011;24468;52.128;9.278;2023-02-01T08:46:08;11.15;;;2.80;;
38717;SDS011;24468;52.128;9.278;2023-02-01T08:48:35;13.18;;;3.60;;
38717;SDS011;24468;52.128;9.278;2023-02-01T08:51:04;9.95;;;2.35;;
38717;SDS011;24468;52.128;9.278;2023-02-01T08:53:37;11.77;;;2.50;;
38717;SDS011;24468;52.128;9.278;2023-02-01T08:56:06;12.25;;;3.40;;
38717;SDS011;24468;52.128;9.278;2023-02-01T08:58:32;17.92;;;3.58;;
38717;SDS011;24468;52.128;9.278;2023-02-01T09:01:02;11.35;;;2.55;;
38717;SDS011;24468;52.128;9.278;2023-02-01T09:03:32;15.10;;;3.83;;
38717;SDS011;24468;52.128;9.278;2023-02-01T09:06:02;16.60;;;3.60;;
38717;SDS011;24468;52.128;9.278;2023-02-01T09:08:29;12.88;;;3.42;;
38717;SDS011;24468;52.128;9.278;2023-02-01T09:10:59;21.08;;;5.88;;
38717;SDS011;24468;52.128;9.278;2023-02-01T09:13:30;16.40;;;3.90;;
38717;SDS011;24468;52.128;9.278;2023-02-01T09:15:56;14.98;;;3.30;;
38717;SDS011;24468;52.128;9.278;2023-02-01T09:18:22;15.60;;;3.42;;
38717;SDS011;24468;52.128;9.278;2023-02-01T09:20:47;13.70;;;3.20;;
38717;SDS011;24468;52.128;9.278;2023-02-01T09:23:13;15.55;;;3.38;;
38717;SDS011;24468;52.128;9.278;2023-02-01T09:25:39;12.63;;;2.75;;
38717;SDS011;24468;52.128;9.278;2023-02-01T09:28:05;15.90;;;3.25;;
38717;SDS011;24468;52.128;9.278;2023-02-01T09:30:31;10.40;;;3.22;;
38717;SDS011;24468;52.128;9.278;2023-02-01T09:32:58;10.18;;;2.97;;
38717;SDS011;24468;52.128;9.278;2023-02-01T09:35:24;17.05;;;3.58;;
38717;SDS011;24468;52.128;9.278;2023-02-01T09:37:49;16.35;;;3.00;;
38717;SDS011;24468;52.128;9.278;2023-02-01T09:40:19;11.70;;;2.63;;
38717;SDS011;24468;52.128;9.278;2023-02-01T09:48:56;10.65;;;2.92;;
38717;SDS011;24468;52.128;9.278;2023-02-01T09:51:29;13.75;;;3.78;;
38717;SDS011;24468;52.128;9.278;2023-02-01T09:56:44;13.52;;;2.78;;
38717;SDS011;24468;52.128;9.278;2023-02-01T10:02:09;18.60;;;3.38;;
38717;SDS011;24468;52.128;9.278;2023-02-01T10:04:42;12.20;;;2.47;;
38717;SDS011;24468;52.128;9.278;2023-02-01T10:07:26;13.32;;;3.35;;
38717;SDS011;24468;52.128;9.278;2023-02-01T10:15:56;14.13;;;3.20;;
38717;SDS011;24468;52.128;9.278;2023-02-01T10:18:51;9.65;;;1.92;;
38717;SDS011;24468;52.128;9.278;2023-02-01T10:21:47;13.10;;;2.90;;
38717;SDS011;24468;52.128;9.278;2023-02-01T10:28:16;11.98;;;3.28;;
38717;SDS011;24468;52.128;9.278;2023-02-01T10:30:43;10.85;;;2.88;;
38717;SDS011;24468;52.128;9.278;2023-02-01T10:33:16;15.60;;;3.10;;
38717;SDS011;24468;52.128;9.278;2023-02-01T10:36:01;11.27;;;2.88;;
38717;SDS011;24468;52.128;9.278;2023-02-01T10:38:52;9.43;;;2.30;;
38717;SDS011;24468;52.128;9.278;2023-02-01T10:41:19;11.38;;;3.67;;
38717;SDS011;24468;52.128;9.278;2023-02-01T10:43:48;16.27;;;2.80;;
38717;SDS011;24468;52.128;9.278;2023-02-01T10:46:19;11.30;;;3.80;;
38717;SDS011;24468;52.128;9.278;2023-02-01T10:48:48;15.30;;;3.20;;
38717;SDS011;24468;52.128;9.278;2023-02-01T10:51:26;13.18;;;3.15;;
38717;SDS011;24468;52.128;9.278;2023-02-01T10:54:16;10.13;;;3.05;;
38717;SDS011;24468;52.128;9.278;2023-02-01T10:56:45;11.85;;;3.03;;
38717;SDS011;24468;52.128;9.278;2023-02-01T10:59:15;12.18;;;4.47;;
38717;SDS011;24468;52.128;9.278;2023-02-01T11:01:46;11.77;;;2.60;;
38717;SDS011;24468;52.128;9.278;2023-02-01T11:04:14;13.85;;;2.25;;
38717;SDS011;24468;52.128;9.278;2023-02-01T11:06:45;11.20;;;2.67;;
38717;SDS011;24468;52.128;9.278;2023-02-01T11:09:19;13.88;;;3.97;;
38717;SDS011;24468;52.128;9.278;2023-02-01T11:14:15;11.43;;;3.08;;
38717;SDS011;24468;52.128;9.278;2023-02-01T11:19:43;12.05;;;2.58;;
38717;SDS011;24468;52.128;9.278;2023-02-01T11:22:10;11.63;;;2.97;;
38717;SDS011;24468;52.128;9.278;2023-02-01T11:24:38;19.55;;;4.15;;
38717;SDS011;24468;52.128;9.278;2023-02-01T11:27:19;9.68;;;3.20;;
38717;SDS011;24468;52.128;9.278;2023-02-01T11:29:52;8.73;;;2.65;;
38717;SDS011;24468;52.128;9.278;2023-02-01T11:32:22;11.95;;;3.25;;
38717;SDS011;24468;52.128;9.278;2023-02-01T11:34:51;14.88;;;4.13;;
38717;SDS011;24468;52.128;9.278;2023-02-01T11:37:30;8.68;;;2.80;;
38717;SDS011;24468;52.128;9.278;2023-02-01T11:42:53;12.10;;;3.17;;
38717;SDS011;24468;52.128;9.278;2023-02-01T11:45:29;9.65;;;2.40;;
38717;SDS011;24468;52.128;9.278;2023-02-01T11:47:59;11.65;;;4.35;;
38717;SDS011;24468;52.128;9.278;2023-02-01T11:53:09;15.73;;;3.47;;
38717;SDS011;24468;52.128;9.278;2023-02-01T11:55:51;17.38;;;3.38;;
38717;SDS011;24468;52.128;9.278;2023-02-01T12:01:29;12.80;;;3.65;;
38717;SDS011;24468;52.128;9.278;2023-02-01T12:19:02;8.88;;;2.60;;
38717;SDS011;24468;52.128;9.278;2023-02-01T12:22:00;9.63;;;2.75;;
38717;SDS011;24468;52.128;9.278;2023-02-01T12:24:42;13.70;;;2.65;;
38717;SDS011;24468;52.128;9.278;2023-02-01T12:36:33;6.75;;;2.50;;
38717;SDS011;24468;52.128;9.278;2023-02-01T12:39:31;6.07;;;1.95;;
38717;SDS011;24468;52.128;9.278;2023-02-01T12:42:03;6.60;;;2.75;;
38717;SDS011;24468;52.128;9.278;2023-02-01T12:50:56;10.63;;;2.00;;
38717;SDS011;24468;52.128;9.278;2023-02-01T12:56:47;7.30;;;2.53;;
38717;SDS011;24468;52.128;9.278;2023-02-01T12:59:25;6.15;;;2.40;;
38717;SDS011;24468;52.128;9.278;2023-02-01T13:02:04;6.05;;;2.15;;
38717;SDS011;24468;52.128;9.278;2023-02-01T13:05:01;9.55;;;2.58;;
38717;SDS011;24468;52.128;9.278;2023-02-01T13:08:06;6.90;;;1.92;;
38717;SDS011;24468;52.128;9.278;2023-02-01T13:10:38;9.18;;;2.17;;
38717;SDS011;24468;52.128;9.278;2023-02-01T13:15:55;10.40;;;2.30;;
38717;SDS011;24468;52.128;9.278;2023-02-01T13:18:36;8.38;;;2.00;;
38717;SDS011;24468;52.128;9.278;2023-02-01T13:21:18;9.30;;;1.73;;
38717;SDS011;24468;52.128;9.278;2023-02-01T13:23:51;7.45;;;2.03;;
38717;SDS011;24468;52.128;9.278;2023-02-01T13:26:18;5.22;;;1.70;;
38717;SDS011;24468;52.128;9.278;2023-02-01T13:28:47;4.38;;;1.77;;
38717;SDS011;24468;52.128;9.278;2023-02-01T13:36:59;8.02;;;1.70;;
38717;SDS011;24468;52.128;9.278;2023-02-01T13:43:07;4.72;;;1.45;;
38717;SDS011;24468;52.128;9.278;2023-02-01T13:45:53;5.10;;;1.35;;
38717;SDS011;24468;52.128;9.278;2023-02-01T13:48:24;3.17;;;1.52;;
38717;SDS011;24468;52.128;9.278;2023-02-01T13:51:18;4.20;;;1.90;;
38717;SDS011;24468;52.128;9.278;2023-02-01T13:54:23;6.70;;;2.15;;
38717;SDS011;24468;52.128;9.278;2023-02-01T13:57:00;6.32;;;2.35;;
38717;SDS011;24468;52.128;9.278;2023-02-01T14:05:09;5.65;;;2.03;;
38717;SDS011;24468;52.128;9.278;2023-02-01T14:07:41;5.65;;;1.83;;
38717;SDS011;24468;52.128;9.278;2023-02-01T14:24:13;2.50;;;0.40;;
38717;SDS011;24468;52.128;9.278;2023-02-01T14:26:49;1.98;;;0.30;;
38717;SDS011;24468;52.128;9.278;2023-02-01T14:29:25;2.67;;;0.20;;
38717;SDS011;24468;52.128;9.278;2023-02-01T14:44:52;1.23;;;0.20;;
38717;SDS011;24468;52.128;9.278;2023-02-01T14:47:39;1.27;;;0.40;;
38717;SDS011;24468;52.128;9.278;2023-02-01T14:58:18;0.40;;;0.20;;
38717;SDS011;24468;52.128;9.278;2023-02-01T15:01:05;0.77;;;0.40;;
38717;SDS011;24468;52.128;9.278;2023-02-01T15:09:27;3.38;;;0.80;;
38717;SDS011;24468;52.128;9.278;2023-02-01T15:12:26;1.63;;;0.70;;
38717;SDS011;24468;52.128;9.278;2023-02-01T15:20:29;2.17;;;0.80;;
38717;SDS011;24468;52.128;9.278;2023-02-01T15:22:58;4.30;;;1.33;;
38717;SDS011;24468;52.128;9.278;2023-02-01T15:25:27;3.95;;;1.10;;
38717;SDS011;24468;52.128;9.278;2023-02-01T15:27:55;4.65;;;1.35;;
38717;SDS011;24468;52.128;9.278;2023-02-01T15:30:26;5.25;;;1.60;;
38717;SDS011;24468;52.128;9.278;2023-02-01T15:33:15;7.97;;;1.30;;
38717;SDS011;24468;52.128;9.278;2023-02-01T15:35:44;3.95;;;1.23;;
38717;SDS011;24468;52.128;9.278;2023-02-01T15:38:32;17.15;;;2.47;;
38717;SDS011;24468;52.128;9.278;2023-02-01T15:46:30;8.65;;;1.73;;
38717;SDS011;24468;52.128;9.278;2023-02-01T15:49:02;7.30;;;1.50;;
38717;SDS011;24468;52.128;9.278;2023-02-01T15:51:30;7.55;;;1.10;;
38717;SDS011;24468;52.128;9.278;2023-02-01T15:54:07;6.03;;;1.60;;
38717;SDS011;24468;52.128;9.278;2023-02-01T15:56:44;4.80;;;1.48;;
38717;SDS011;24468;52.128;9.278;2023-02-01T15:59:18;6.65;;;2.25;;
38717;SDS011;24468;52.128;9.278;2023-02-01T16:01:53;7.53;;;1.98;;
38717;SDS011;24468;52.128;9.278;2023-02-01T16:04:20;3.58;;;1.00;;
38717;SDS011;24468;52.128;9.278;2023-02-01T16:06:53;5.50;;;1.00;;
38717;SDS011;24468;52.128;9.278;2023-02-01T16:09:25;3.67;;;1.15;;
38717;SDS011;24468;52.128;9.278;2023-02-01T16:12:03;5.93;;;1.23;;
38717;SDS011;24468;52.128;9.278;2023-02-01T16:15:03;9.77;;;1.95;;
38717;SDS011;24468;52.128;9.278;2023-02-01T16:17:29;4.28;;;0.85;;
38717;SDS011;24468;52.128;9.278;2023-02-01T16:19:55;3.85;;;1.20;;
38717;SDS011;24468;52.128;9.278;2023-02-01T16:22:22;14.00;;;2.88;;
38717;SDS011;24468;52.128;9.278;2023-02-01T16:24:47;7.50;;;2.13;;
38717;SDS011;24468;52.128;9.278;2023-02-01T16:27:13;10.52;;;2.25;;
38717;SDS011;24468;52.128;9.278;2023-02-01T16:29:39;7.82;;;1.73;;
38717;SDS011;24468;52.128;9.278;2023-02-01T16:32:04;6.15;;;1.40;;
38717;SDS011;24468;52.128;9.278;2023-02-01T16:34:30;10.30;;;2.28;;
38717;SDS011;24468;52.128;9.278;2023-02-01T16:36:57;5.45;;;1.65;;
38717;SDS011;24468;52.128;9.278;2023-02-01T16:39:23;6.45;;;1.92;;
38717;SDS011;24468;52.128;9.278;2023-02-01T16:41:49;7.53;;;3.47;;
38717;SDS011;24468;52.128;9.278;2023-02-01T16:44:15;10.50;;;4.65;;
38717;SDS011;24468;52.128;9.278;2023-02-01T16:46:42;14.07;;;4.00;;
38717;SDS011;24468;52.128;9.278;2023-02-01T16:49:20;9.73;;;4.03;;
38717;SDS011;24468;52.128;9.278;2023-02-01T16:51:50;17.63;;;8.02;;
38717;SDS011;24468;52.128;9.278;2023-02-01T16:54:20;9.57;;;2.90;;
38717;SDS011;24468;52.128;9.278;2023-02-01T16:56:46;14.27;;;3.67;;
38717;SDS011;24468;52.128;9.278;2023-02-01T16:59:12;8.75;;;2.90;;
38717;SDS011;24468;52.128;9.278;2023-02-01T17:01:38;14.43;;;2.92;;
38717;SDS011;24468;52.128;9.278;2023-02-01T17:04:05;16.33;;;4.90;;
38717;SDS011;24468;52.128;9.278;2023-02-01T17:06:31;12.80;;;3.15;;
38717;SDS011;24468;52.128;9.278;2023-02-01T17:08:58;7.55;;;2.30;;
38717;SDS011;24468;52.128;9.278;2023-02-01T17:11:25;15.00;;;3.75;;
38717;SDS011;24468;52.128;9.278;2023-02-01T17:13:52;11.00;;;2.75;;
38717;SDS011;24468;52.128;9.278;2023-02-01T17:18:44;14.18;;;2.13;;
38717;SDS011;24468;52.128;9.278;2023-02-01T17:21:20;14.93;;;2.47;;
38717;SDS011;24468;52.128;9.278;2023-02-01T17:23:47;9.88;;;2.17;;
38717;SDS011;24468;52.128;9.278;2023-02-01T17:26:12;14.30;;;2.30;;
38717;SDS011;24468;52.128;9.278;2023-02-01T17:28:38;10.35;;;2.80;;
38717;SDS011;24468;52.128;9.278;2023-02-01T17:31:03;10.55;;;2.35;;
38717;SDS011;24468;52.128;9.278;2023-02-01T17:33:30;11.07;;;2.03;;
38717;SDS011;24468;52.128;9.278;2023-02-01T17:36:00;9.35;;;2.10;;
38717;SDS011;24468;52.128;9.278;2023-02-01T17:38:28;13.43;;;2.78;;
38717;SDS011;24468;52.128;9.278;2023-02-01T17:40:54;9.38;;;1.98;;
38717;SDS011;24468;52.128;9.278;2023-02-01T17:43:20;11.75;;;3.17;;
38717;SDS011;24468;52.128;9.278;2023-02-01T17:45:49;13.52;;;3.67;;
38717;SDS011;24468;52.128;9.278;2023-02-01T17:48:22;8.93;;;4.72;;
38717;SDS011;24468;52.128;9.278;2023-02-01T17:50:48;12.75;;;2.10;;
38717;SDS011;24468;52.128;9.278;2023-02-01T17:53:18;15.77;;;3.40;;
38717;SDS011;24468;52.128;9.278;2023-02-01T17:55:48;13.30;;;3.10;;
38717;SDS011;24468;52.128;9.278;2023-02-01T17:58:15;19.35;;;3.50;;
38717;SDS011;24468;52.128;9.278;2023-02-01T18:00:43;10.48;;;2.45;;
38717;SDS011;24468;52.128;9.278;2023-02-01T18:05:57;11.35;;;4.72;;
38717;SDS011;24468;52.128;9.278;2023-02-01T18:08:24;7.35;;;2.88;;